Time;durP1;ratioP1;P1;durP2;ratioP2;P2;SDS_P1;SDS_P2;PMS_P1;PMS_P2;Temp;Humidity;BMP_temperature;BMP_pressure;BME280_temperature;BME280_humidity;BME280_pressure;Samples;Min_cycle;Max_cycle;Signal;HPM_P1;HPM_P2
2021/04/04 00:02:12;;;;;;;17.87;8.77;;;;;;;6.80;65.78;102408.94;6234982;28;20232;-52
2021/04/04 00:05:32;;;;;;;22.93;8.50;;;;;;;7.09;64.88;102404.69;6224809;28;20237;-53
2021/04/04 00:08:52;;;;;;;19.27;8.37;;;;;;;6.23;67.75;102412.25;6211301;28;20637;-46
2021/04/04 00:12:13;;;;;;;16.07;8.53;;;;;;;6.36;67.61;102401.50;6214671;28;20245;-49
2021/04/04 00:15:34;;;;;;;18.53;9.10;;;;;;;6.43;67.84;102412.94;6231675;28;20240;-53
2021/04/04 00:18:55;;;;;;;19.83;7.63;;;;;;;6.48;66.97;102395.84;6236856;28;20531;-48
2021/04/04 00:22:15;;;;;;;17.57;8.10;;;;;;;6.38;67.70;102402.44;6218378;28;20686;-48
2021/04/04 00:25:35;;;;;;;15.43;8.50;;;;;;;6.96;65.33;102395.66;6215991;28;20237;-52
2021/04/04 00:28:56;;;;;;;19.63;8.27;;;;;;;6.64;66.37;102395.50;6215693;28;20259;-52
2021/04/04 00:32:17;;;;;;;31.27;9.23;;;;;;;7.07;64.85;102388.22;6232579;28;20232;-50
2021/04/04 00:35:37;;;;;;;15.00;7.60;;;;;;;6.94;64.33;102383.47;6233922;28;20290;-51
2021/04/04 00:38:58;;;;;;;18.00;8.13;;;;;;;7.34;63.25;102395.06;6235462;28;20625;-53
2021/04/04 00:42:18;;;;;;;21.57;8.10;;;;;;;7.15;63.95;102391.91;6218295;28;20530;-51
2021/04/04 00:45:40;;;;;;;15.80;7.27;;;;;;;6.90;65.51;102385.09;6231863;28;20233;-50
2021/04/04 00:49:01;;;;;;;17.27;7.23;;;;;;;6.76;65.91;102381.19;6213487;28;20233;-49
2021/04/04 00:52:22;;;;;;;19.37;7.90;;;;;;;7.34;63.74;102387.28;6204664;28;20562;-52
2021/04/04 00:55:42;;;;;;;18.73;8.50;;;;;;;7.35;63.55;102373.47;6215484;28;20328;-54
2021/04/04 00:59:03;;;;;;;16.20;7.60;;;;;;;7.45;62.98;102375.50;6226629;28;20240;-48
2021/04/04 01:02:24;;;;;;;18.70;8.13;;;;;;;6.80;65.08;102365.78;6234341;28;20233;-53
2021/04/04 01:05:48;;;;;;;20.57;9.90;;;;;;;6.10;68.22;102375.59;6211108;28;20229;-51
2021/04/04 01:09:08;;;;;;;16.93;9.03;;;;;;;6.57;66.86;102371.97;6211534;28;20233;-52
2021/04/04 01:12:39;;;;;;;19.70;8.03;;;;;;;6.44;67.05;102373.28;6215343;28;20599;-53
2021/04/04 01:16:02;;;;;;;18.53;8.53;;;;;;;6.75;66.01;102369.97;6237189;28;20299;-49
2021/04/04 01:19:40;;;;;;;21.60;11.30;;;;;;;6.29;67.48;102368.47;6236208;28;20221;-53
2021/04/04 01:23:30;;;;;;;16.20;8.23;;;;;;;6.29;67.98;102363.31;6223612;28;20236;-47
2021/04/04 01:27:03;;;;;;;15.70;7.63;;;;;;;6.57;66.58;102365.09;6230561;28;20355;-51
2021/04/04 01:30:28;;;;;;;19.30;9.43;;;;;;;6.73;66.10;102356.09;6228467;28;20228;-54
2021/04/04 01:33:52;;;;;;;16.50;7.27;;;;;;;6.60;66.16;102353.94;6238186;28;20236;-53
2021/04/04 01:37:15;;;;;;;18.23;8.27;;;;;;;6.49;66.31;102361.34;6225299;28;20348;-52
2021/04/04 01:40:36;;;;;;;19.77;8.60;;;;;;;6.48;66.47;102352.72;6222557;28;20232;-49
2021/04/04 01:44:01;;;;;;;15.33;7.67;;;;;;;6.54;65.88;102349.47;6235001;28;20243;-52
2021/04/04 01:47:23;;;;;;;18.70;9.03;;;;;;;6.54;65.96;102349.47;6225312;28;20521;-53
2021/04/04 01:50:44;;;;;;;16.50;9.33;;;;;;;6.62;65.58;102341.94;6483725;22;20229;-54
2021/04/04 01:54:06;;;;;;;14.17;7.43;;;;;;;6.15;66.93;102349.03;6209211;28;20237;-52
2021/04/04 01:57:29;;;;;;;17.10;9.50;;;;;;;5.78;68.10;102348.63;6195271;28;20241;-52
2021/04/04 02:00:49;;;;;;;21.90;7.13;;;;;;;5.94;68.06;102350.03;6192849;28;20546;-54
2021/04/04 02:04:11;;;;;;;16.20;6.97;;;;;;;5.96;67.89;102343.22;6205097;28;20234;-51
2021/04/04 02:07:32;;;;;;;14.23;7.47;;;;;;;5.67;68.07;102340.47;6189201;28;20681;-52
2021/04/04 02:10:54;;;;;;;16.87;6.97;;;;;;;6.09;66.62;102339.38;6185663;28;21046;-50
2021/04/04 02:14:18;;;;;;;16.83;6.57;;;;;;;6.26;65.84;102345.97;6196449;28;20329;-52
2021/04/04 02:17:42;;;;;;;17.63;6.73;;;;;;;5.64;67.79;102350.72;6190257;28;20539;-51
2021/04/04 02:21:04;;;;;;;13.27;6.43;;;;;;;5.69;67.81;102344.00;6189797;28;20238;-51
2021/04/04 02:24:27;;;;;;;11.87;6.23;;;;;;;5.64;67.64;102332.63;6203806;28;20225;-54
2021/04/04 02:27:48;;;;;;;12.40;5.83;;;;;;;6.15;66.56;102338.69;6210999;28;20263;-49
2021/04/04 02:31:12;;;;;;;22.40;7.73;;;;;;;5.75;67.37;102337.28;6191937;28;20233;-55
2021/04/04 02:34:35;;;;;;;14.20;6.53;;;;;;;5.81;67.19;102337.50;6211857;28;20770;-51
2021/04/04 02:37:59;;;;;;;14.53;7.23;;;;;;;5.99;66.41;102326.94;6188822;28;20602;-51
2021/04/04 02:41:20;;;;;;;18.03;6.93;;;;;;;5.69;67.16;102333.66;6169272;28;20514;-50
2021/04/04 02:44:41;;;;;;;18.70;7.57;;;;;;;5.76;67.36;102334.75;6209074;28;20312;-52
2021/04/04 02:48:05;;;;;;;17.50;7.37;;;;;;;6.35;65.03;102335.03;6195492;28;20556;-51
2021/04/04 02:51:30;;;;;;;16.83;7.57;;;;;;;6.60;64.20;102341.88;6186760;28;20233;-46
2021/04/04 02:54:53;;;;;;;13.70;7.37;;;;;;;5.99;65.80;102327.81;6176485;28;20241;-51
2021/04/04 02:58:15;;;;;;;15.67;6.53;;;;;;;6.05;66.19;102324.56;6205280;28;20237;-49
2021/04/04 03:01:39;;;;;;;17.70;8.03;;;;;;;6.17;65.34;102324.09;6190896;28;20225;-52
2021/04/04 03:05:01;;;;;;;18.37;8.70;;;;;;;6.68;64.07;102318.81;6185286;28;20241;-48
2021/04/04 03:08:23;;;;;;;14.23;7.93;;;;;;;6.33;64.40;102320.31;6188161;28;20337;-50
2021/04/04 03:11:45;;;;;;;17.67;6.93;;;;;;;6.26;64.72;102314.03;6187923;28;20524;-55
2021/04/04 03:15:09;;;;;;;13.63;7.03;;;;;;;6.54;63.98;102307.16;6188069;28;20242;-52
2021/04/04 03:18:31;;;;;;;15.83;6.70;;;;;;;6.51;63.63;102302.75;6178534;28;20265;-49
2021/04/04 03:21:53;;;;;;;17.63;7.70;;;;;;;5.96;65.70;102299.25;6188602;28;20576;-53
2021/04/04 03:25:15;;;;;;;16.37;6.17;;;;;;;6.02;65.85;102296.88;6198856;28;20237;-54
2021/04/04 03:28:38;;;;;;;15.10;8.00;;;;;;;5.79;66.47;102292.59;6201226;28;20511;-51
2021/04/04 03:31:59;;;;;;;20.97;9.00;;;;;;;5.83;66.60;102281.53;6204326;28;20308;-55
2021/04/04 03:35:19;;;;;;;15.57;7.63;;;;;;;5.77;66.04;102283.94;6215996;28;20240;-51
2021/04/04 03:38:43;;;;;;;27.60;8.53;;;;;;;5.56;67.01;102279.75;6201116;28;20252;-52
2021/04/04 03:42:04;;;;;;;21.33;6.50;;;;;;;5.80;66.21;102279.75;6216468;28;20229;-53
2021/04/04 03:45:26;;;;;;;24.83;7.23;;;;;;;6.01;65.54;102268.38;6192567;28;20233;-53
2021/04/04 03:48:48;;;;;;;13.27;7.13;;;;;;;5.51;66.91;102271.00;6190165;28;20514;-52
2021/04/04 03:52:08;;;;;;;15.17;6.93;;;;;;;5.92;65.48;102263.75;6177693;28;20622;-51
2021/04/04 03:55:30;;;;;;;24.43;8.17;;;;;;;5.52;66.84;102257.22;6191395;28;20236;-50
2021/04/04 03:58:51;;;;;;;21.07;7.53;;;;;;;5.43;67.67;102259.47;6184242;28;20226;-50
2021/04/04 04:02:13;;;;;;;12.33;5.93;;;;;;;5.46;66.43;102259.59;6206812;28;21079;-53
2021/04/04 04:05:33;;;;;;;20.13;8.63;;;;;;;5.32;67.20;102253.97;6211495;28;20229;-47
2021/04/04 04:08:55;;;;;;;20.50;6.77;;;;;;;5.02;68.66;102251.13;6211416;28;20465;-53
2021/04/04 04:12:16;;;;;;;18.13;6.77;;;;;;;5.33;67.81;102255.69;6216169;28;20249;-51
2021/04/04 04:15:36;;;;;;;12.20;5.80;;;;;;;5.78;65.86;102247.78;6194407;28;20650;-54
2021/04/04 04:18:58;;;;;;;15.97;6.83;;;;;;;5.72;66.07;102245.88;6212511;28;20268;-54
2021/04/04 04:22:19;;;;;;;24.67;5.90;;;;;;;6.11;65.30;102240.28;6190530;28;20277;-54
2021/04/04 04:25:41;;;;;;;11.00;5.83;;;;;;;6.25;63.66;102250.19;6190362;28;20332;-55
2021/04/04 04:29:04;;;;;;;17.73;5.70;;;;;;;6.06;64.50;102241.84;6192810;28;20237;-55
2021/04/04 04:32:25;;;;;;;15.63;6.53;;;;;;;6.23;64.36;102233.75;6202464;28;20241;-51
2021/04/04 04:35:49;;;;;;;16.67;6.83;;;;;;;6.15;64.45;102235.22;6191007;28;20321;-50
2021/04/04 04:39:11;;;;;;;12.43;6.00;;;;;;;5.89;64.34;102233.53;6189342;28;20537;-55
2021/04/04 04:42:35;;;;;;;13.93;5.83;;;;;;;5.99;64.71;102234.72;6190845;28;20323;-54
2021/04/04 04:45:55;;;;;;;14.23;6.43;;;;;;;5.95;64.81;102221.59;6187103;28;20589;-50
2021/04/04 04:49:17;;;;;;;17.53;6.70;;;;;;;5.81;64.94;102223.72;6208515;28;20233;-54
2021/04/04 04:52:39;;;;;;;11.00;5.17;;;;;;;6.23;63.75;102226.00;6192549;28;20558;-48
2021/04/04 04:56:01;;;;;;;20.50;6.17;;;;;;;5.71;65.56;102223.44;6188618;28;20253;-51
2021/04/04 04:59:23;;;;;;;17.43;6.67;;;;;;;5.74;64.58;102222.66;6190242;28;20226;-52
2021/04/04 05:02:44;;;;;;;16.30;6.17;;;;;;;5.98;64.15;102222.63;6190530;28;20225;-52
2021/04/04 05:06:07;;;;;;;14.07;6.33;;;;;;;6.13;63.37;102213.56;6192699;28;20241;-53
2021/04/04 05:09:32;;;;;;;9.87;4.77;;;;;;;6.15;62.96;102218.00;6193747;28;20233;-53
2021/04/04 05:12:57;;;;;;;12.10;4.53;;;;;;;6.22;61.98;102219.94;6217174;28;20278;-49
2021/04/04 05:16:18;;;;;;;14.20;5.97;;;;;;;5.87;62.64;102203.25;6193086;28;20242;-52
2021/04/04 05:19:38;;;;;;;12.90;4.10;;;;;;;6.16;62.15;102218.84;6192953;28;20234;-50
2021/04/04 05:23:00;;;;;;;13.50;5.13;;;;;;;6.67;60.82;102211.81;6208944;28;20256;-47
2021/04/04 05:26:25;;;;;;;13.67;4.93;;;;;;;6.55;60.72;102207.97;6217301;28;20224;-51
2021/04/04 05:29:45;;;;;;;18.03;4.90;;;;;;;6.50;60.62;102208.72;6209996;28;20241;-50
2021/04/04 05:33:06;;;;;;;11.43;4.57;;;;;;;5.70;63.33;102203.59;6188408;28;20230;-54
2021/04/04 05:36:27;;;;;;;14.60;5.17;;;;;;;6.23;61.83;102213.06;6192462;28;20237;-50
2021/04/04 05:39:47;;;;;;;11.17;4.10;;;;;;;6.40;61.43;102211.88;6179349;28;20623;-50
2021/04/04 05:43:12;;;;;;;23.80;7.60;;;;;;;6.19;61.91;102214.66;6193225;28;20594;-52
2021/04/04 05:46:36;;;;;;;17.33;6.07;;;;;;;6.22;61.88;102214.78;6202729;28;20527;-51
2021/04/04 05:50:02;;;;;;;10.93;5.33;;;;;;;6.12;62.56;102204.94;6198282;28;20659;-52
2021/04/04 05:53:31;;;;;;;18.00;5.40;;;;;;;6.39;61.42;102214.41;6199390;28;20229;-46
2021/04/04 05:56:53;;;;;;;12.57;6.00;;;;;;;6.41;61.63;102216.19;6192395;28;20343;-50
2021/04/04 06:00:17;;;;;;;11.63;4.37;;;;;;;6.30;61.56;102205.53;6184910;28;20225;-50
2021/04/04 06:04:02;;;;;;;11.57;4.63;;;;;;;6.59;60.87;102207.22;6214251;28;20228;-48
2021/04/04 06:08:01;;;;;;;14.47;5.23;;;;;;;5.86;63.25;102194.63;6193982;28;20241;-48
2021/04/04 06:11:29;;;;;;;13.73;5.23;;;;;;;6.05;62.89;102198.72;6161604;28;20229;-51
2021/04/04 06:15:05;;;;;;;13.17;4.23;;;;;;;6.04;62.58;102193.50;6191982;28;20249;-49
2021/04/04 06:18:40;;;;;;;10.57;3.90;;;;;;;5.95;62.45;102186.31;6205508;28;20228;-50
2021/04/04 06:22:08;;;;;;;9.83;4.03;;;;;;;6.13;62.13;102185.13;6192198;28;24904;-50
2021/04/04 06:25:51;;;;;;;12.67;4.43;;;;;;;6.39;61.24;102181.63;6199455;28;20260;-50
2021/04/04 06:29:15;;;;;;;14.93;4.57;;;;;;;6.49;60.55;102180.19;6212642;28;20229;-48
2021/04/04 06:32:44;;;;;;;9.57;3.47;;;;;;;6.48;60.29;102183.63;6205313;28;20618;-53
2021/04/04 06:36:24;;;;;;;10.10;4.50;;;;;;;6.19;61.22;102180.16;6210568;28;20255;-53
2021/04/04 06:39:59;;;;;;;10.00;4.10;;;;;;;6.44;60.70;102182.66;6209703;28;20226;-53
2021/04/04 06:43:26;;;;;;;6.20;3.33;;;;;;;6.65;60.27;102181.50;6204298;28;20229;-52
2021/04/04 06:46:58;;;;;;;8.53;3.70;;;;;;;6.83;59.49;102186.34;6198375;28;20233;-52
2021/04/04 06:50:22;;;;;;;8.33;3.67;;;;;;;6.37;60.31;102185.88;6190562;28;20241;-50
2021/04/04 06:54:10;;;;;;;10.67;3.50;;;;;;;6.75;59.83;102183.56;6191428;28;20233;-55
2021/04/04 06:57:46;;;;;;;10.03;4.50;;;;;;;6.68;59.81;102184.19;6200934;28;20622;-49
2021/04/04 07:01:14;;;;;;;10.53;3.50;;;;;;;6.45;60.86;102181.81;6198242;28;20225;-53
2021/04/04 07:04:40;;;;;;;16.67;5.00;;;;;;;6.45;60.83;102180.94;6208221;28;20232;-51
2021/04/04 07:08:24;;;;;;;15.03;4.43;;;;;;;6.47;60.97;102180.13;6219901;28;20248;-50
2021/04/04 07:11:54;;;;;;;13.83;5.23;;;;;;;6.35;61.20;102177.19;6191247;28;20242;-52
2021/04/04 07:15:27;;;;;;;10.37;4.13;;;;;;;6.50;61.13;102169.88;6200039;28;20513;-48
2021/04/04 07:19:11;;;;;;;11.60;5.33;;;;;;;6.95;59.90;102159.91;6183475;28;20228;-50
2021/04/04 07:22:51;;;;;;;13.60;5.27;;;;;;;7.23;59.45;102167.59;6198043;28;20788;-48
2021/04/04 07:26:22;;;;;;;9.17;3.80;;;;;;;6.65;61.49;102171.16;6200084;28;20241;-50
2021/04/04 07:33:54;;;;;;;11.23;3.97;;;;;;;6.27;64.10;102168.34;6208167;28;20240;-52
2021/04/04 07:37:33;;;;;;;9.47;3.67;;;;;;;6.36;64.24;102163.44;6207825;28;20242;-52
2021/04/04 07:41:01;;;;;;;9.80;4.53;;;;;;;6.19;64.84;102164.66;6176628;28;20910;-54
2021/04/04 07:44:25;;;;;;;11.73;5.33;;;;;;;6.31;65.27;102165.88;6195001;28;20233;-51
2021/04/04 07:47:58;;;;;;;12.07;5.83;;;;;;;6.71;64.66;102163.59;6203220;28;20234;-51
2021/04/04 07:51:22;;;;;;;13.17;5.57;;;;;;;5.97;67.53;102171.75;6194560;28;20293;-50
2021/04/04 07:54:54;;;;;;;16.13;6.00;;;;;;;6.74;65.70;102168.84;6194910;28;20241;-52
2021/04/04 07:58:22;;;;;;;10.13;6.30;;;;;;;6.55;66.56;102170.00;6195093;28;20230;-48
2021/04/04 08:01:50;;;;;;;14.03;8.03;;;;;;;6.49;66.91;102170.75;6201493;28;20241;-51
2021/04/04 08:05:14;;;;;;;13.30;5.67;;;;;;;6.57;67.05;102173.56;6194850;28;20229;-50
2021/04/04 08:08:40;;;;;;;13.33;6.83;;;;;;;6.96;65.82;102172.00;6207792;28;20232;-55
2021/04/04 08:12:10;;;;;;;12.87;6.07;;;;;;;6.50;67.94;102177.66;6195889;28;20225;-54
2021/04/04 08:15:39;;;;;;;15.30;7.30;;;;;;;6.87;66.55;102178.69;6195219;28;20237;-52
2021/04/04 08:19:00;;;;;;;11.50;5.90;;;;;;;6.97;65.29;102168.59;6193823;28;20274;-52
2021/04/04 08:22:27;;;;;;;19.43;8.07;;;;;;;7.20;64.91;102166.63;6183411;28;20228;-49
2021/04/04 08:25:52;;;;;;;18.03;7.63;;;;;;;7.03;65.31;102168.75;6195720;28;20226;-55
2021/04/04 08:29:16;;;;;;;16.67;6.63;;;;;;;7.25;64.26;102163.34;6217796;28;20523;-55
2021/04/04 08:32:44;;;;;;;27.97;7.60;;;;;;;7.08;64.50;102164.59;6191626;28;20260;-53
2021/04/04 08:36:07;;;;;;;11.30;7.77;;;;;;;6.66;66.64;102166.03;6195681;28;20564;-52
2021/04/04 08:39:33;;;;;;;14.60;7.40;;;;;;;6.20;67.54;102167.25;6178184;28;20313;-51
2021/04/04 08:42:54;;;;;;;16.40;6.97;;;;;;;6.28;67.84;102167.47;6194550;28;20245;-51
2021/04/04 08:46:22;;;;;;;16.17;8.53;;;;;;;6.71;66.70;102166.19;6195746;28;20300;-48
2021/04/04 08:49:43;;;;;;;13.77;6.97;;;;;;;6.72;66.54;102167.03;6192637;28;20569;-49
2021/04/04 08:53:19;;;;;;;13.83;6.83;;;;;;;6.31;67.63;102162.41;6193557;28;20237;-55
2021/04/04 08:56:42;;;;;;;9.97;6.20;;;;;;;6.88;66.00;102171.81;6209182;28;20241;-49
2021/04/04 09:00:06;;;;;;;12.87;6.37;;;;;;;7.45;64.22;102157.78;6189836;28;20550;-50
2021/04/04 09:03:27;;;;;;;11.53;5.50;;;;;;;7.60;63.64;102158.16;6215753;28;20229;-53
2021/04/04 09:06:50;;;;;;;12.43;6.90;;;;;;;7.38;64.48;102161.03;6204913;28;20584;-54
2021/04/04 09:10:14;;;;;;;12.20;6.50;;;;;;;7.73;62.93;102163.63;6192245;28;20629;-48
2021/04/04 09:13:36;;;;;;;14.70;6.40;;;;;;;7.60;62.70;102152.97;6193341;28;20230;-51
2021/04/04 09:16:59;;;;;;;10.33;5.87;;;;;;;7.73;62.72;102150.66;6186054;28;20560;-51
2021/04/04 09:20:31;;;;;;;10.10;5.03;;;;;;;7.29;63.74;102141.84;6206200;28;20233;-53
2021/04/04 09:23:55;;;;;;;8.83;5.03;;;;;;;7.65;61.78;102134.94;6197193;28;20282;-54
2021/04/04 09:27:17;;;;;;;14.23;5.53;;;;;;;7.34;62.82;102133.31;6216490;28;20233;-53
2021/04/04 09:30:41;;;;;;;15.47;6.00;;;;;;;7.40;63.38;102131.72;6197910;28;20237;-51
2021/04/04 09:34:08;;;;;;;10.37;4.77;;;;;;;7.39;63.81;102136.91;6191538;28;20233;-52
2021/04/04 09:37:30;;;;;;;11.90;5.00;;;;;;;7.20;63.51;102141.59;6186227;28;20537;-51
2021/04/04 09:40:50;;;;;;;12.63;5.23;;;;;;;7.11;63.93;102125.81;6196485;28;20237;-52
2021/04/04 09:44:11;;;;;;;5.37;4.80;;;;;;;7.39;62.13;102117.03;6216002;28;20945;-54
2021/04/04 09:47:34;;;;;;;7.60;4.17;;;;;;;7.64;61.19;102117.63;6194613;28;20249;-54
2021/04/04 09:51:05;;;;;;;9.50;3.97;;;;;;;7.97;59.28;102116.63;6192101;28;20523;-52
2021/04/04 09:54:26;;;;;;;9.57;3.13;;;;;;;7.89;59.14;102114.75;6191176;28;20796;-52
2021/04/04 09:57:49;;;;;;;5.03;3.33;;;;;;;7.42;61.32;102105.84;6200016;28;20238;-56
2021/04/04 10:01:17;;;;;;;7.30;3.23;;;;;;;7.64;60.88;102104.66;6195314;28;20229;-52
2021/04/04 10:04:44;;;;;;;10.03;4.50;;;;;;;7.17;63.14;102100.03;6195660;28;20362;-52
2021/04/04 10:08:13;;;;;;;8.90;4.47;;;;;;;6.88;64.21;102097.59;6192324;28;20233;-54
2021/04/04 10:11:34;;;;;;;9.03;4.43;;;;;;;7.19;63.56;102095.81;6201608;28;20237;-49
2021/04/04 10:15:03;;;;;;;6.47;3.63;;;;;;;7.41;62.02;102097.22;6191880;28;20532;-51
2021/04/04 10:18:25;;;;;;;6.80;2.90;;;;;;;7.99;59.82;102095.09;6213776;28;20296;-51
2021/04/04 10:21:56;;;;;;;12.50;3.83;;;;;;;8.05;59.64;102089.16;6203683;28;20237;-53
2021/04/04 10:25:17;;;;;;;5.53;3.27;;;;;;;7.84;60.03;102077.47;6215749;28;20237;-53
2021/04/04 10:28:42;;;;;;;12.63;4.50;;;;;;;8.03;59.44;102077.88;6194109;28;20316;-55
2021/04/04 10:32:03;;;;;;;7.70;3.53;;;;;;;7.67;60.33;102071.00;6189689;28;20236;-51
2021/04/04 10:35:33;;;;;;;7.73;3.20;;;;;;;8.24;58.99;102080.06;6177224;28;20234;-52
2021/04/04 10:38:54;;;;;;;5.80;3.67;;;;;;;8.37;58.41;102069.06;6191147;28;20826;-52
2021/04/04 10:42:16;;;;;;;8.37;3.03;;;;;;;8.28;58.53;102076.69;6196024;28;20234;-54
2021/04/04 10:45:36;;;;;;;6.53;2.97;;;;;;;8.51;57.89;102071.06;6192079;28;20242;-52
2021/04/04 10:48:59;;;;;;;8.63;3.13;;;;;;;8.19;57.79;102060.91;6188629;28;20615;-49
2021/04/04 10:52:20;;;;;;;7.80;4.17;;;;;;;8.42;57.58;102059.69;6193974;28;20213;-54
2021/04/04 10:55:41;;;;;;;7.07;3.17;;;;;;;8.22;57.87;102055.75;6209273;28;20238;-53
2021/04/04 10:59:03;;;;;;;3.07;2.50;;;;;;;8.70;56.51;102044.63;6194357;28;20299;-51
2021/04/04 11:02:24;;;;;;;11.03;2.77;;;;;;;8.79;55.39;102043.91;6192030;28;20237;-54
2021/04/04 11:05:45;;;;;;;6.73;2.23;;;;;;;8.94;54.06;102044.19;6191600;28;20245;-53
2021/04/04 11:09:06;;;;;;;6.23;3.13;;;;;;;8.77;54.39;102043.88;6191514;28;20237;-53
2021/04/04 11:12:29;;;;;;;5.33;2.73;;;;;;;8.48;55.26;102033.81;6198883;28;20490;-51
2021/04/04 11:15:52;;;;;;;12.23;2.97;;;;;;;8.74;54.93;102028.22;6191935;28;20254;-54
2021/04/04 11:19:14;;;;;;;7.03;2.63;;;;;;;8.82;54.78;102028.38;6191175;28;20234;-50
2021/04/04 11:22:35;;;;;;;9.73;4.00;;;;;;;9.17;53.72;102015.09;6192317;28;20233;-52
2021/04/04 11:25:56;;;;;;;8.20;3.40;;;;;;;8.83;54.31;102002.44;6175421;28;20221;-55
2021/04/04 11:29:18;;;;;;;8.43;2.67;;;;;;;8.83;54.40;102011.94;6202533;28;20230;-48
2021/04/04 11:32:40;;;;;;;7.93;3.10;;;;;;;8.66;55.38;102011.66;6195604;28;20226;-52
2021/04/04 11:36:09;;;;;;;9.73;3.27;;;;;;;8.84;55.01;102005.88;6191273;28;20230;-51
2021/04/04 11:39:30;;;;;;;5.70;2.43;;;;;;;8.96;54.68;102000.91;6190386;28;20237;-50
2021/04/04 11:43:11;;;;;;;9.00;2.63;;;;;;;8.90;54.83;101985.25;6191713;28;20233;-55
2021/04/04 11:46:46;;;;;;;14.83;3.67;;;;;;;9.10;54.15;101987.28;6191664;28;20234;-55
2021/04/04 11:50:23;;;;;;;9.23;2.93;;;;;;;8.90;54.89;101979.16;6190436;28;20233;-54
2021/04/04 11:53:45;;;;;;;6.73;2.83;;;;;;;8.94;54.56;101975.78;6179679;28;20348;-53
2021/04/04 11:57:06;;;;;;;8.97;2.87;;;;;;;9.09;54.76;101975.13;6192720;28;20627;-51
2021/04/04 12:00:28;;;;;;;11.17;3.53;;;;;;;8.75;55.34;101961.59;6191939;28;20225;-50
2021/04/04 12:03:49;;;;;;;8.40;3.07;;;;;;;8.78;55.45;101954.75;6192257;28;20234;-55
2021/04/04 12:07:11;;;;;;;11.87;3.50;;;;;;;8.65;55.52;101963.16;6196495;28;20238;-52
2021/04/04 12:10:33;;;;;;;7.63;2.83;;;;;;;9.12;54.30;101949.19;6193570;28;20558;-50
2021/04/04 12:13:59;;;;;;;5.30;2.50;;;;;;;9.00;54.15;101952.47;6154326;28;20485;-51
2021/04/04 12:17:22;;;;;;;8.30;2.30;;;;;;;9.14;54.04;101950.94;6197908;28;20232;-52
2021/04/04 12:20:43;;;;;;;4.40;1.80;;;;;;;9.05;54.23;101948.22;6205167;28;20245;-49
2021/04/04 12:24:05;;;;;;;6.43;3.57;;;;;;;9.53;53.01;101943.69;6194176;28;20258;-52
2021/04/04 12:27:26;;;;;;;5.07;1.97;;;;;;;9.38;53.83;101927.06;6209620;28;20257;-53
2021/04/04 12:30:46;;;;;;;4.07;1.83;;;;;;;9.10;54.57;101920.59;6195197;28;20229;-54
2021/04/04 12:34:07;;;;;;;4.97;2.23;;;;;;;8.99;55.47;101917.81;6199321;28;20324;-55
2021/04/04 12:37:31;;;;;;;3.20;1.83;;;;;;;8.51;55.89;101904.91;6181050;28;20324;-54
2021/04/04 12:40:52;;;;;;;4.10;2.03;;;;;;;8.56;56.68;101911.06;6194027;28;20225;-51
2021/04/04 12:44:31;;;;;;;7.53;3.30;;;;;;;7.96;58.71;101894.41;6218547;28;20324;-53
2021/04/04 12:47:52;;;;;;;5.43;3.03;;;;;;;8.26;58.01;101900.16;6206472;28;20622;-51
2021/04/04 12:51:13;;;;;;;8.50;3.77;;;;;;;8.22;58.35;101890.56;6193827;28;20254;-51
2021/04/04 12:54:35;;;;;;;7.70;3.27;;;;;;;8.12;59.04;101887.78;6192134;28;20246;-54
2021/04/04 12:57:58;;;;;;;6.33;2.70;;;;;;;8.28;58.24;101880.28;6205462;28;20241;-52
2021/04/04 13:01:18;;;;;;;7.53;3.27;;;;;;;8.53;57.79;101882.44;6211323;28;20225;-52
2021/04/04 13:04:39;;;;;;;5.60;2.87;;;;;;;8.05;59.91;101864.31;6192925;28;20234;-53
2021/04/04 13:07:59;;;;;;;4.63;2.90;;;;;;;8.23;59.44;101862.91;6168549;28;20305;-50
2021/04/04 13:11:21;;;;;;;9.57;3.33;;;;;;;8.15;59.54;101872.28;6193285;28;20309;-53
2021/04/04 13:14:41;;;;;;;6.10;3.40;;;;;;;8.40;59.08;101852.81;6193286;28;20562;-51
2021/04/04 13:18:02;;;;;;;12.17;4.27;;;;;;;8.79;58.21;101852.56;6196524;28;20241;-53
2021/04/04 13:21:24;;;;;;;5.00;2.23;;;;;;;8.80;57.29;101848.25;6182348;28;20242;-51
2021/04/04 13:24:44;;;;;;;5.10;3.10;;;;;;;8.04;59.64;101841.78;6210814;28;20237;-53
2021/04/04 13:28:05;;;;;;;7.23;2.47;;;;;;;8.36;58.99;101833.72;6203327;28;20272;-55
2021/04/04 13:31:27;;;;;;;5.03;2.60;;;;;;;7.94;60.25;101837.31;6203870;28;20276;-49
2021/04/04 13:34:50;;;;;;;5.87;2.40;;;;;;;8.52;58.72;101839.19;6178285;28;20229;-52
2021/04/04 13:38:23;;;;;;;4.27;2.20;;;;;;;7.93;60.64;101812.22;6191982;28;20234;-50
2021/04/04 13:41:44;;;;;;;5.03;2.30;;;;;;;8.59;58.43;101812.47;6192363;28;20786;-47
2021/04/04 13:45:06;;;;;;;2.97;2.10;;;;;;;8.00;60.46;101795.91;6192512;28;20560;-53
2021/04/04 13:48:31;;;;;;;5.97;2.93;;;;;;;8.19;59.98;101807.47;6209525;28;20682;-51
2021/04/04 13:51:52;;;;;;;8.80;3.60;;;;;;;8.17;60.63;101797.91;6197074;28;20607;-55
2021/04/04 13:55:25;;;;;;;6.07;1.90;;;;;;;7.85;61.78;101811.19;6194050;28;20226;-53
2021/04/04 13:58:46;;;;;;;4.53;2.50;;;;;;;7.75;62.12;101796.31;6191656;28;20324;-50
2021/04/04 14:02:07;;;;;;;10.10;3.03;;;;;;;8.20;60.94;101784.97;6192893;28;20237;-52
2021/04/04 14:05:29;;;;;;;17.27;3.77;;;;;;;8.69;59.09;101780.59;6198507;28;20233;-50
2021/04/04 14:08:50;;;;;;;3.17;2.40;;;;;;;8.97;57.37;101786.13;6208011;28;20225;-51
2021/04/04 14:12:12;;;;;;;6.27;2.10;;;;;;;8.63;58.35;101776.16;6191336;28;20603;-53
2021/04/04 14:15:33;;;;;;;7.53;2.63;;;;;;;8.43;59.31;101781.09;6196013;28;20233;-52
2021/04/04 14:18:54;;;;;;;5.37;3.33;;;;;;;8.08;60.30;101777.88;6191729;28;20271;-54
2021/04/04 14:22:14;;;;;;;9.73;3.90;;;;;;;8.23;60.79;101772.06;6191635;28;20694;-55
2021/04/04 14:25:35;;;;;;;5.60;2.77;;;;;;;8.16;60.99;101773.72;6192354;28;20233;-56
2021/04/04 14:28:55;;;;;;;7.40;3.47;;;;;;;8.56;59.70;101768.28;6164207;28;20237;-51
2021/04/04 14:32:15;;;;;;;8.37;3.53;;;;;;;8.56;58.58;101765.69;6206542;28;20236;-55
2021/04/04 14:35:36;;;;;;;7.23;3.33;;;;;;;8.57;58.40;101752.72;6214617;28;20233;-53
2021/04/04 14:38:57;;;;;;;4.50;2.60;;;;;;;8.66;58.08;101747.63;6208642;28;20229;-54
2021/04/04 14:42:18;;;;;;;7.03;3.13;;;;;;;8.31;58.81;101741.03;6215454;28;20240;-51
2021/04/04 14:45:38;;;;;;;14.83;3.73;;;;;;;8.51;58.53;101741.34;6208545;28;20244;-54
2021/04/04 14:48:59;;;;;;;6.90;3.60;;;;;;;8.43;58.58;101729.16;6191311;28;20610;-53
2021/04/04 14:52:20;;;;;;;9.37;3.87;;;;;;;8.19;59.23;101737.41;6180642;28;20234;-52
2021/04/04 14:55:44;;;;;;;8.57;4.40;;;;;;;8.33;59.09;101722.03;6189489;28;20590;-54
2021/04/04 14:59:05;;;;;;;6.37;3.80;;;;;;;8.05;59.58;101708.66;6190663;28;20237;-53
2021/04/04 15:02:30;;;;;;;11.20;4.00;;;;;;;7.76;61.07;101702.13;6188815;28;20242;-52
2021/04/04 15:05:51;;;;;;;11.67;4.50;;;;;;;8.38;59.31;101710.00;6201058;28;20248;-51
2021/04/04 15:09:12;;;;;;;5.03;3.30;;;;;;;7.55;61.75;101703.50;6191685;28;20233;-57
2021/04/04 15:12:33;;;;;;;11.67;4.60;;;;;;;7.84;60.96;101696.22;6176079;28;20229;-55
2021/04/04 15:15:53;;;;;;;8.03;4.83;;;;;;;8.03;60.28;101696.53;6192098;28;20618;-52
2021/04/04 15:19:14;;;;;;;9.80;4.50;;;;;;;7.65;61.64;101702.81;6190370;28;20237;-54
2021/04/04 15:22:38;;;;;;;11.73;5.17;;;;;;;7.88;60.93;101687.63;6191882;28;20234;-52
2021/04/04 15:25:59;;;;;;;8.17;4.67;;;;;;;8.22;59.89;101682.97;6198719;28;20225;-53
2021/04/04 15:29:19;;;;;;;9.13;4.33;;;;;;;7.84;60.68;101677.19;6217159;28;20225;-51
2021/04/04 15:32:40;;;;;;;12.77;5.40;;;;;;;8.37;59.29;101682.28;6215772;28;20245;-48
2021/04/04 15:36:00;;;;;;;8.07;5.03;;;;;;;7.95;60.29;101661.78;6198393;28;20237;-49
2021/04/04 15:39:21;;;;;;;9.40;5.47;;;;;;;7.80;60.72;101663.31;6194274;28;20228;-54
2021/04/04 15:42:42;;;;;;;9.47;4.80;;;;;;;8.26;59.47;101647.56;6198149;28;20276;-53
2021/04/04 15:46:03;;;;;;;8.70;5.20;;;;;;;7.66;61.34;101651.84;6217080;28;20248;-51
2021/04/04 15:49:24;;;;;;;6.97;5.23;;;;;;;8.09;60.04;101644.72;6208864;28;20233;-56
2021/04/04 15:52:45;;;;;;;8.50;4.47;;;;;;;7.85;60.87;101633.16;6194803;28;20241;-55
2021/04/04 15:56:06;;;;;;;6.60;4.17;;;;;;;8.08;60.21;101630.00;6194523;28;20238;-50
2021/04/04 15:59:27;;;;;;;6.77;4.83;;;;;;;8.26;59.80;101616.44;6202840;28;20268;-51